createdAt,value
2022-07-26T00:04:16.565Z,60.69
2022-07-26T00:09:20.835Z,59.93
2022-07-26T00:14:25.043Z,58.90
2022-07-26T00:19:30.491Z,58.97
2022-07-26T00:24:35.570Z,59.01
2022-07-26T00:29:39.852Z,59.84
2022-07-26T00:34:45.292Z,60.41
2022-07-26T00:39:49.441Z,61.12
2022-07-26T00:44:53.921Z,61.89
2022-07-26T00:49:59.671Z,61.59
2022-07-26T00:55:04.758Z,61.01
2022-07-26T01:00:12.520Z,60.36
2022-07-26T01:05:18.535Z,60.03
2022-07-26T01:10:22.575Z,60.75
2022-07-26T01:15:26.671Z,61.18
2022-07-26T01:20:32.207Z,60.90
2022-07-26T01:25:43.214Z,60.49
2022-07-26T01:30:47.806Z,60.90
2022-07-26T01:35:51.933Z,62.72
2022-07-26T01:40:57.471Z,63.45
2022-07-26T01:46:01.700Z,61.83
2022-07-26T01:51:06.152Z,61.68
2022-07-26T01:56:12.130Z,61.93
2022-07-26T02:01:16.478Z,63.33
2022-07-26T02:06:40.730Z,62.69
2022-07-26T02:11:48.876Z,62.66
2022-07-26T02:16:59.897Z,63.11
2022-07-26T02:22:04.389Z,62.88
2022-07-26T02:27:10.635Z,63.75
2022-07-26T02:32:14.783Z,63.34
2022-07-26T02:37:19.180Z,63.02
2022-07-26T02:42:24.822Z,64.69
2022-07-26T02:47:29.257Z,66.52
2022-07-26T02:52:34.761Z,66.35
2022-07-26T02:57:45.574Z,66.11
2022-07-26T03:02:51.871Z,65.33
2022-07-26T03:07:55.936Z,66.60
2022-07-26T03:13:01.507Z,66.39
2022-07-26T03:18:06.106Z,67.46
2022-07-26T03:23:10.145Z,67.82
2022-07-26T03:28:19.505Z,67.66
2022-07-26T03:33:23.902Z,67.74
2022-07-26T03:38:27.944Z,68.51
2022-07-26T03:43:36.234Z,68.25
2022-07-26T03:48:40.724Z,68.49
2022-07-26T03:53:45.829Z,67.78
2022-07-26T03:58:51.234Z,66.37
2022-07-26T04:03:55.401Z,67.12
2022-07-26T04:08:59.655Z,66.74
2022-07-26T04:14:05.557Z,66.74
2022-07-26T04:19:10.372Z,67.00
2022-07-26T04:24:14.668Z,66.79
2022-07-26T04:29:20.359Z,66.63
2022-07-26T04:34:24.639Z,66.05
2022-07-26T04:39:28.773Z,65.37
2022-07-26T04:44:34.268Z,65.08
2022-07-26T04:49:38.741Z,66.58
2022-07-26T04:54:42.785Z,66.04
2022-07-26T04:59:58.352Z,66.21
2022-07-26T05:05:12.392Z,66.61
2022-07-26T05:10:18.777Z,66.03
2022-07-26T05:20:29.534Z,66.01
2022-07-26T05:25:34.178Z,65.54
2022-07-26T05:30:39.825Z,65.45
2022-07-26T05:35:44.249Z,64.63
2022-07-26T05:40:50.749Z,64.77
2022-07-26T05:45:58.001Z,64.64
2022-07-26T05:51:02.355Z,63.46
2022-07-26T05:56:07.612Z,62.85
2022-07-26T06:01:13.049Z,63.51
2022-07-26T06:06:17.453Z,63.33
2022-07-26T06:11:21.701Z,62.46
2022-07-26T06:16:27.480Z,62.19
2022-07-26T06:21:31.561Z,61.79
2022-07-26T06:26:35.750Z,61.94
2022-07-26T06:31:41.830Z,61.67
2022-07-26T06:36:46.535Z,61.34
2022-07-26T06:41:50.871Z,60.18
2022-07-26T06:47:01.003Z,59.62
2022-07-26T06:52:05.419Z,58.85
2022-07-26T06:57:10.131Z,58.29
2022-07-26T07:02:16.065Z,57.80
2022-07-26T07:07:20.229Z,55.80
2022-07-26T07:12:24.357Z,54.23
2022-07-26T07:17:30.775Z,53.76
2022-07-26T07:22:34.886Z,53.04
2022-07-26T07:27:38.981Z,53.13
2022-07-26T07:32:47.303Z,53.04
2022-07-26T07:37:53.725Z,52.45
2022-07-26T07:42:58.379Z,51.84
2022-07-26T07:48:04.207Z,51.01
2022-07-26T07:53:08.222Z,50.57
2022-07-26T07:58:12.335Z,50.58
2022-07-26T08:03:20.058Z,49.96
2022-07-26T08:08:24.160Z,49.61
2022-07-26T08:13:28.501Z,48.04
2022-07-26T08:18:34.246Z,46.92
2022-07-26T08:23:38.388Z,45.34
2022-07-26T08:28:47.845Z,46.61
2022-07-26T08:33:53.974Z,47.35
2022-07-26T08:38:58.102Z,47.86
2022-07-26T08:44:12.954Z,46.87
2022-07-26T08:49:18.604Z,43.87
2022-07-26T08:59:21.774Z,38.63
2022-07-26T09:04:32.088Z,35.95
2022-07-26T09:09:40.339Z,38.63
2022-07-26T09:14:48.025Z,35.97
2022-07-26T09:20:06.757Z,34.28
2022-07-26T09:25:23.791Z,35.28
2022-07-26T09:30:31.198Z,34.72
2022-07-26T09:35:50.711Z,31.45
2022-07-26T09:40:56.116Z,32.86
2022-07-26T09:46:07.512Z,32.54
2022-07-26T09:51:12.047Z,34.14
2022-07-26T09:56:16.339Z,31.81
2022-07-26T10:01:21.880Z,31.73
2022-07-26T10:06:30.260Z,31.05
2022-07-26T10:11:42.977Z,32.50
2022-07-26T10:16:48.462Z,33.25
2022-07-26T10:21:53.541Z,32.03
2022-07-26T10:27:00.553Z,32.60
2022-07-26T10:32:21.441Z,31.18
2022-07-26T10:37:29.440Z,31.54
2022-07-26T10:42:45.496Z,30.24
2022-07-26T10:48:13.833Z,28.17
2022-07-26T10:53:19.107Z,28.57
2022-07-26T10:58:24.923Z,28.49
2022-07-26T11:03:40.130Z,28.08
2022-07-26T11:08:48.326Z,27.29
2022-07-26T11:13:53.824Z,28.41
2022-07-26T11:18:59.266Z,27.57
2022-07-26T11:24:04.149Z,27.42
2022-07-26T11:29:08.211Z,25.89
2022-07-26T11:34:20.562Z,26.04
2022-07-26T11:39:25.770Z,24.83
2022-07-26T11:44:30.548Z,24.11
2022-07-26T11:55:03.046Z,23.68
2022-07-26T12:00:08.627Z,23.31
2022-07-26T12:05:22.334Z,22.90
2022-07-26T12:10:27.693Z,22.82
2022-07-26T12:15:45.747Z,23.25
2022-07-26T12:21:04.465Z,23.03
2022-07-26T12:26:24.585Z,23.28
2022-07-26T12:31:30.407Z,23.58
2022-07-26T12:36:36.385Z,23.10
2022-07-26T12:41:42.526Z,22.93
2022-07-26T12:46:46.835Z,21.72
2022-07-26T12:51:52.619Z,20.99
2022-07-26T12:56:56.826Z,21.15
2022-07-26T13:02:01.357Z,20.65
2022-07-26T13:07:08.336Z,21.91
2022-07-26T13:12:13.462Z,22.01
2022-07-26T13:17:18.011Z,22.81
2022-07-26T13:22:23.632Z,22.55
2022-07-26T13:27:35.532Z,22.72
2022-07-26T13:32:41.534Z,22.28
2022-07-26T13:37:47.743Z,22.43
2022-07-26T13:42:52.205Z,23.06
2022-07-26T13:47:56.946Z,22.41
2022-07-26T13:53:02.753Z,21.99
2022-07-26T13:58:10.087Z,22.94
2022-07-26T14:03:15.189Z,22.93
2022-07-26T14:08:23.273Z,21.99
2022-07-26T14:13:27.492Z,22.74
2022-07-26T14:18:33.184Z,23.18
2022-07-26T14:23:38.814Z,22.97
2022-07-26T14:28:42.945Z,22.61
2022-07-26T14:33:47.333Z,23.00
2022-07-26T14:38:53.068Z,23.13
2022-07-26T14:43:58.783Z,22.52
2022-07-26T14:49:02.798Z,23.04
2022-07-26T14:54:08.733Z,22.74
2022-07-26T14:59:14.929Z,22.45
2022-07-26T15:04:19.366Z,23.03
2022-07-26T15:09:26.377Z,23.22
2022-07-26T15:14:30.508Z,23.11
2022-07-26T15:19:35.154Z,23.58
2022-07-26T15:24:41.025Z,23.51
2022-07-26T15:29:46.939Z,23.69
2022-07-26T15:34:53.532Z,23.78
2022-07-26T15:39:59.666Z,23.67
2022-07-26T15:45:09.497Z,23.55
2022-07-26T15:50:15.755Z,23.69
2022-07-26T15:55:21.543Z,23.02
2022-07-26T16:00:27.131Z,23.28
2022-07-26T16:05:31.235Z,23.50
2022-07-26T16:10:37.371Z,23.29
2022-07-26T16:15:41.455Z,24.05
2022-07-26T16:20:47.304Z,23.74
2022-07-26T16:25:52.910Z,23.82
2022-07-26T16:30:57.006Z,23.50
2022-07-26T16:36:05.979Z,23.58
2022-07-26T16:41:12.233Z,23.83
2022-07-26T16:46:16.507Z,24.02
2022-07-26T16:51:21.623Z,24.03
2022-07-26T16:56:27.520Z,24.39
2022-07-26T17:01:31.733Z,25.51
2022-07-26T17:06:35.861Z,25.84
2022-07-26T17:11:41.438Z,27.14
2022-07-26T17:16:45.787Z,28.81
2022-07-26T17:21:50.091Z,30.36
2022-07-26T17:26:55.585Z,33.82
2022-07-26T17:31:59.711Z,34.85
2022-07-26T17:37:07.088Z,34.89
2022-07-26T17:42:15.851Z,35.71
2022-07-26T17:47:28.317Z,35.79
2022-07-26T17:52:33.100Z,34.65
2022-07-26T17:57:38.800Z,35.38
2022-07-26T18:02:42.911Z,36.13
2022-07-26T18:07:47.062Z,37.43
2022-07-26T18:12:52.573Z,37.38
2022-07-26T18:17:56.736Z,38.33
2022-07-26T18:23:00.895Z,39.58
2022-07-26T18:28:07.324Z,38.90
2022-07-26T18:33:14.426Z,38.59
2022-07-26T18:38:19.374Z,38.75
2022-07-26T18:43:25.032Z,39.27
2022-07-26T18:48:29.330Z,40.13
2022-07-26T18:53:33.699Z,40.37
2022-07-26T18:58:39.316Z,40.89
2022-07-26T19:03:43.641Z,41.00
2022-07-26T19:08:47.854Z,41.76
2022-07-26T19:13:53.348Z,42.16
2022-07-26T19:18:57.752Z,41.89
2022-07-26T19:24:02.098Z,42.02
2022-07-26T19:29:08.028Z,42.25
2022-07-26T19:34:12.632Z,42.56
2022-07-26T19:39:16.856Z,42.94
2022-07-26T19:44:22.358Z,43.46
2022-07-26T19:49:26.586Z,44.51
2022-07-26T19:54:30.935Z,46.05
2022-07-26T19:59:36.462Z,46.26
2022-07-26T20:04:45.483Z,46.75
2022-07-26T20:09:50.626Z,46.67
2022-07-26T20:14:56.224Z,46.29
2022-07-26T20:20:00.320Z,46.43
2022-07-26T20:25:04.525Z,46.23
2022-07-26T20:30:13.029Z,45.88
2022-07-26T20:35:17.238Z,45.75
2022-07-26T20:40:21.395Z,46.03
2022-07-26T20:45:29.024Z,45.80
2022-07-26T20:50:35.173Z,46.33
2022-07-26T20:55:39.551Z,47.29
2022-07-26T21:00:45.320Z,47.10
2022-07-26T21:05:49.984Z,46.62
2022-07-26T21:10:55.652Z,47.02
2022-07-26T21:16:01.236Z,47.47
2022-07-26T21:21:05.715Z,47.72
2022-07-26T21:26:12.686Z,48.29
2022-07-26T21:31:18.299Z,49.93
2022-07-26T21:36:22.806Z,50.25
2022-07-26T21:41:27.154Z,50.88
2022-07-26T21:46:32.861Z,50.98
2022-07-26T21:51:37.045Z,51.05
2022-07-26T21:56:41.483Z,51.84
2022-07-26T22:01:47.001Z,52.22
2022-07-26T22:06:51.242Z,51.94
2022-07-26T22:11:55.641Z,51.28
2022-07-26T22:17:02.179Z,51.61
2022-07-26T22:22:06.376Z,52.44
2022-07-26T22:27:10.694Z,51.82
2022-07-26T22:32:16.096Z,51.98
2022-07-26T22:37:20.223Z,52.00
2022-07-26T22:42:24.369Z,52.38
2022-07-26T22:47:29.953Z,51.85
2022-07-26T22:52:34.499Z,51.80
2022-07-26T22:57:38.646Z,51.60
2022-07-26T23:02:44.871Z,52.33
2022-07-26T23:07:49.002Z,52.92
2022-07-26T23:12:55.460Z,52.75
2022-07-26T23:18:01.097Z,52.64
2022-07-26T23:23:05.312Z,52.75
2022-07-26T23:28:09.312Z,53.69
2022-07-26T23:33:53.197Z,54.93
2022-07-26T23:38:54.976Z,54.88
2022-07-26T23:43:59.281Z,54.45
2022-07-26T23:49:05.254Z,54.38
2022-07-26T23:54:09.387Z,54.18
2022-07-26T23:59:14.438Z,55.20
